createdAt,value
2022-12-25T00:01:14.029Z,4.90
2022-12-25T00:03:40.923Z,4.07
2022-12-25T00:06:08.036Z,3.70
2022-12-25T00:08:35.641Z,4.00
2022-12-25T00:11:12.417Z,3.58
2022-12-25T00:13:39.729Z,2.90
2022-12-25T00:16:18.407Z,2.33
2022-12-25T00:18:45.946Z,2.10
2022-12-25T00:21:13.919Z,2.20
2022-12-25T00:23:41.016Z,2.47
2022-12-25T00:26:11.466Z,2.20
2022-12-25T00:28:38.681Z,2.28
2022-12-25T00:31:16.889Z,2.10
2022-12-25T00:33:46.087Z,3.20
2022-12-25T00:36:14.955Z,3.70
2022-12-25T00:38:42.273Z,3.85
2022-12-25T00:41:14.609Z,5.88
2022-12-25T00:43:42.302Z,3.65
2022-12-25T00:46:11.143Z,3.30
2022-12-25T00:48:38.550Z,2.95
2022-12-25T00:51:07.933Z,3.33
2022-12-25T00:53:35.134Z,2.22
2022-12-25T00:56:05.118Z,2.15
2022-12-25T00:58:33.542Z,2.50
2022-12-25T01:01:00.574Z,2.85
2022-12-25T01:03:27.771Z,2.53
2022-12-25T01:06:06.373Z,2.05
2022-12-25T01:08:35.910Z,2.40
2022-12-25T01:11:06.426Z,2.60
2022-12-25T01:13:35.824Z,2.65
2022-12-25T01:16:07.723Z,2.13
2022-12-25T01:18:34.753Z,1.92
2022-12-25T01:21:09.363Z,2.65
2022-12-25T01:23:37.758Z,3.15
2022-12-25T01:26:06.283Z,3.03
2022-12-25T01:28:33.142Z,2.95
2022-12-25T01:30:59.911Z,3.33
2022-12-25T01:33:27.243Z,3.03
2022-12-25T01:35:54.076Z,2.63
2022-12-25T01:38:21.092Z,2.40
2022-12-25T01:40:47.872Z,2.72
2022-12-25T01:43:18.827Z,3.28
2022-12-25T01:45:47.750Z,2.08
2022-12-25T01:48:19.450Z,2.13
2022-12-25T01:50:50.471Z,2.00
2022-12-25T01:53:17.367Z,1.98
2022-12-25T01:55:46.256Z,2.13
2022-12-25T01:58:13.622Z,2.22
2022-12-25T02:00:40.500Z,2.13
2022-12-25T02:03:07.527Z,2.15
2022-12-25T02:05:35.411Z,1.95
2022-12-25T02:08:10.444Z,1.67
2022-12-25T02:10:39.170Z,1.52
2022-12-25T02:13:07.808Z,1.50
2022-12-25T02:15:59.629Z,1.42
2022-12-25T02:19:03.203Z,1.65
2022-12-25T02:21:50.185Z,1.73
2022-12-25T02:24:25.981Z,1.67
2022-12-25T02:26:59.992Z,1.58
2022-12-25T02:29:53.583Z,2.05
2022-12-25T02:32:29.836Z,1.95
2022-12-25T02:35:21.826Z,1.90
2022-12-25T02:38:06.408Z,1.95
2022-12-25T02:41:01.743Z,2.08
2022-12-25T02:43:55.295Z,1.83
2022-12-25T02:46:42.586Z,2.15
2022-12-25T02:49:42.035Z,1.73
2022-12-25T02:52:34.473Z,1.50
2022-12-25T02:58:16.938Z,1.15
2022-12-25T03:01:06.430Z,2.47
2022-12-25T03:03:56.880Z,1.35
2022-12-25T03:06:46.640Z,1.40
2022-12-25T03:09:40.491Z,1.50
2022-12-25T03:12:34.570Z,1.42
2022-12-25T03:15:20.489Z,1.30
2022-12-25T03:17:47.389Z,1.42
2022-12-25T03:20:33.103Z,1.42
2022-12-25T03:23:18.447Z,1.17
2022-12-25T03:26:03.784Z,1.20
2022-12-25T03:28:30.604Z,1.50
2022-12-25T03:31:12.817Z,1.13
2022-12-25T03:37:18.725Z,1.58
2022-12-25T03:39:58.757Z,1.73
2022-12-25T03:43:00.374Z,1.58
2022-12-25T03:46:00.376Z,1.55
2022-12-25T03:48:48.978Z,1.02
2022-12-25T03:51:39.695Z,1.15
2022-12-25T03:54:30.091Z,0.90
2022-12-25T03:57:16.293Z,0.98
2022-12-25T04:00:01.623Z,0.80
2022-12-25T04:02:47.220Z,0.90
2022-12-25T04:05:32.459Z,0.82
2022-12-25T04:08:17.799Z,1.15
2022-12-25T04:11:03.050Z,1.02
2022-12-25T04:13:48.585Z,1.02
2022-12-25T04:16:33.759Z,0.90
2022-12-25T04:19:19.147Z,0.90
2022-12-25T04:22:04.577Z,1.00
2022-12-25T04:24:50.033Z,1.10
2022-12-25T04:27:35.645Z,0.65
2022-12-25T04:30:20.987Z,1.10
2022-12-25T04:33:06.333Z,1.00
2022-12-25T04:35:51.739Z,1.10
2022-12-25T04:38:21.009Z,1.02
2022-12-25T04:40:47.951Z,1.45
2022-12-25T04:43:14.869Z,1.45
2022-12-25T04:45:41.693Z,1.10
2022-12-25T04:48:08.580Z,1.08
2022-12-25T04:50:35.421Z,1.38
2022-12-25T04:53:02.271Z,1.20
2022-12-25T04:55:29.052Z,1.05
2022-12-25T04:57:55.870Z,1.30
2022-12-25T05:00:22.721Z,1.33
2022-12-25T05:02:49.589Z,1.50
2022-12-25T05:05:16.576Z,1.30
2022-12-25T05:07:43.431Z,1.45
2022-12-25T05:10:10.682Z,1.38
2022-12-25T05:12:37.470Z,1.60
2022-12-25T05:15:04.624Z,1.88
2022-12-25T05:17:31.446Z,1.10
2022-12-25T05:19:58.288Z,1.42
2022-12-25T05:22:25.072Z,1.50
2022-12-25T05:24:51.894Z,1.65
2022-12-25T05:27:18.691Z,1.90
2022-12-25T05:29:45.529Z,1.30
2022-12-25T05:32:12.713Z,2.65
2022-12-25T05:34:39.557Z,1.48
2022-12-25T05:37:06.401Z,1.48
2022-12-25T05:39:33.300Z,1.60
2022-12-25T05:42:00.121Z,1.55
2022-12-25T05:44:26.923Z,1.35
2022-12-25T05:46:53.750Z,1.17
2022-12-25T05:49:20.563Z,1.10
2022-12-25T05:51:47.337Z,2.30
2022-12-25T05:54:14.155Z,2.30
2022-12-25T05:56:40.983Z,1.80
2022-12-25T05:59:07.807Z,1.92
2022-12-25T06:01:34.673Z,1.48
2022-12-25T06:04:03.617Z,1.42
2022-12-25T06:06:33.852Z,1.75
2022-12-25T06:09:00.652Z,1.60
2022-12-25T06:11:27.505Z,1.77
2022-12-25T06:13:54.379Z,1.10
2022-12-25T06:16:21.265Z,0.93
2022-12-25T06:18:52.033Z,0.80
2022-12-25T06:21:19.161Z,0.68
2022-12-25T06:23:46.074Z,0.68
2022-12-25T06:26:16.719Z,0.50
2022-12-25T06:28:44.229Z,0.50
2022-12-25T06:31:16.831Z,0.50
2022-12-25T06:33:44.478Z,0.70
2022-12-25T06:36:16.986Z,0.60
2022-12-25T06:38:44.293Z,0.90
2022-12-25T06:41:14.773Z,1.10
2022-12-25T06:43:41.703Z,0.77
2022-12-25T06:46:10.845Z,0.80
2022-12-25T06:48:40.248Z,1.15
2022-12-25T06:51:07.779Z,1.20
2022-12-25T06:53:40.439Z,2.40
2022-12-25T06:56:16.101Z,6.28
2022-12-25T06:58:55.424Z,4.45
2022-12-25T07:01:26.968Z,4.32
2022-12-25T07:03:57.091Z,4.53
2022-12-25T07:06:23.963Z,2.60
2022-12-25T07:08:50.802Z,1.67
2022-12-25T07:11:18.049Z,1.45
2022-12-25T07:13:44.918Z,1.30
2022-12-25T07:16:12.458Z,1.23
2022-12-25T07:18:39.638Z,1.45
2022-12-25T07:21:12.690Z,1.60
2022-12-25T07:23:39.617Z,1.50
2022-12-25T07:26:07.010Z,1.08
2022-12-25T07:28:34.182Z,2.20
2022-12-25T07:31:07.531Z,1.83
2022-12-25T07:33:34.519Z,2.15
2022-12-25T07:36:01.472Z,2.13
2022-12-25T07:38:28.352Z,1.85
2022-12-25T07:40:55.321Z,1.95
2022-12-25T07:43:22.394Z,2.20
2022-12-25T07:45:53.843Z,1.48
2022-12-25T07:48:20.665Z,1.63
2022-12-25T07:50:47.484Z,1.88
2022-12-25T07:53:14.283Z,1.58
2022-12-25T07:55:41.133Z,3.05
2022-12-25T07:58:07.900Z,1.75
2022-12-25T08:00:34.778Z,2.28
2022-12-25T08:03:01.915Z,2.22
2022-12-25T08:05:28.851Z,1.90
2022-12-25T08:07:57.862Z,1.95
2022-12-25T08:10:25.321Z,2.58
2022-12-25T08:12:55.236Z,2.08
2022-12-25T08:15:22.076Z,1.90
2022-12-25T08:17:48.826Z,2.35
2022-12-25T08:20:15.695Z,2.70
2022-12-25T08:22:42.504Z,1.98
2022-12-25T08:25:09.656Z,3.35
2022-12-25T08:27:36.469Z,3.13
2022-12-25T08:30:04.086Z,3.42
2022-12-25T08:32:33.641Z,3.63
2022-12-25T08:35:00.514Z,3.95
2022-12-25T08:37:30.156Z,4.30
2022-12-25T08:39:56.947Z,3.78
2022-12-25T08:42:23.734Z,4.15
2022-12-25T08:44:50.622Z,3.85
2022-12-25T08:47:17.414Z,4.50
2022-12-25T08:49:44.227Z,4.40
2022-12-25T08:52:11.233Z,4.13
2022-12-25T08:54:38.125Z,4.32
2022-12-25T08:57:04.938Z,4.78
2022-12-25T08:59:31.723Z,2.85
2022-12-25T09:01:58.718Z,2.45
2022-12-25T09:04:25.742Z,1.52
2022-12-25T09:06:52.576Z,1.23
2022-12-25T09:09:19.385Z,2.47
2022-12-25T09:11:46.194Z,2.25
2022-12-25T09:14:14.324Z,1.45
2022-12-25T09:16:41.142Z,1.77
2022-12-25T09:19:07.998Z,1.75
2022-12-25T09:21:36.888Z,1.83
2022-12-25T09:24:07.248Z,1.50
2022-12-25T09:26:34.228Z,1.70
2022-12-25T09:29:01.059Z,1.85
2022-12-25T09:31:28.110Z,1.90
2022-12-25T09:33:58.069Z,1.20
2022-12-25T09:36:25.640Z,1.20
2022-12-25T09:38:52.921Z,0.60
2022-12-25T09:41:34.160Z,1.10
2022-12-25T09:44:17.013Z,0.93
2022-12-25T09:46:53.954Z,1.27
2022-12-25T09:49:41.980Z,1.00
2022-12-25T09:52:20.057Z,1.40
2022-12-25T09:55:08.543Z,1.30
2022-12-25T09:57:35.458Z,1.40
2022-12-25T10:00:02.287Z,1.30
2022-12-25T10:02:53.462Z,0.75
2022-12-25T10:05:41.590Z,0.40
2022-12-25T10:08:42.045Z,1.30
2022-12-25T10:11:27.322Z,0.60
2022-12-25T10:14:14.310Z,0.70
2022-12-25T10:16:56.955Z,0.80
2022-12-25T10:19:32.492Z,0.80
2022-12-25T10:22:03.414Z,0.75
2022-12-25T10:24:47.191Z,1.20
2022-12-25T10:27:29.024Z,1.05
2022-12-25T10:29:55.886Z,0.93
2022-12-25T10:32:23.078Z,1.05
2022-12-25T10:34:50.345Z,1.20
2022-12-25T10:37:17.721Z,0.63
2022-12-25T10:39:47.001Z,0.43
2022-12-25T10:42:38.865Z,0.35
2022-12-25T10:45:08.431Z,0.73
2022-12-25T10:47:38.370Z,0.63
2022-12-25T10:50:19.613Z,0.30
2022-12-25T10:53:04.798Z,0.30
2022-12-25T10:55:33.004Z,0.63
2022-12-25T10:58:02.063Z,0.40
2022-12-25T11:00:31.886Z,0.43
2022-12-25T11:02:59.538Z,0.43
2022-12-25T11:05:36.905Z,0.40
2022-12-25T11:08:04.355Z,0.60
2022-12-25T11:10:42.332Z,0.30
2022-12-25T11:13:21.264Z,0.40
2022-12-25T11:15:49.902Z,0.28
2022-12-25T11:18:22.678Z,0.30
2022-12-25T11:21:15.339Z,0.60
2022-12-25T11:23:55.403Z,0.45
2022-12-25T11:26:22.451Z,0.40
2022-12-25T11:28:51.242Z,0.60
2022-12-25T11:31:21.075Z,0.70
2022-12-25T11:34:00.160Z,0.40
2022-12-25T11:36:47.262Z,0.40
2022-12-25T11:39:30.443Z,0.30
2022-12-25T11:42:12.354Z,0.25
2022-12-25T11:44:51.388Z,0.30
2022-12-25T11:47:45.136Z,0.17
2022-12-25T11:50:36.744Z,0.40
2022-12-25T11:53:07.136Z,0.40
2022-12-25T11:55:42.624Z,0.60
2022-12-25T11:58:20.723Z,0.50
2022-12-25T12:00:50.260Z,0.20
2022-12-25T12:03:32.727Z,0.60
2022-12-25T12:06:17.778Z,0.20
2022-12-25T12:08:47.032Z,0.30
2022-12-25T12:11:23.034Z,0.20
2022-12-25T12:14:25.841Z,0.22
2022-12-25T12:16:52.751Z,0.70
2022-12-25T12:19:28.781Z,0.30
2022-12-25T12:21:59.854Z,0.60
2022-12-25T12:24:34.179Z,0.40
2022-12-25T12:27:26.795Z,0.32
2022-12-25T12:29:56.981Z,0.30
2022-12-25T12:32:29.652Z,0.30
2022-12-25T12:34:57.651Z,0.40
2022-12-25T12:37:35.617Z,0.50
2022-12-25T12:40:05.071Z,0.20
2022-12-25T12:42:36.005Z,0.20
2022-12-25T12:45:26.667Z,0.40
2022-12-25T12:47:54.788Z,0.40
2022-12-25T12:50:40.934Z,0.32
2022-12-25T12:53:35.084Z,0.40
2022-12-25T12:56:17.378Z,0.25
2022-12-25T12:58:50.960Z,0.40
2022-12-25T13:01:27.380Z,0.30
2022-12-25T13:04:04.435Z,0.40
2022-12-25T13:06:39.745Z,0.70
2022-12-25T13:09:13.428Z,0.43
2022-12-25T13:11:43.588Z,0.40
2022-12-25T13:14:20.186Z,0.30
2022-12-25T13:16:49.986Z,0.20
2022-12-25T13:19:23.290Z,0.32
2022-12-25T13:22:00.393Z,0.20
2022-12-25T13:24:29.585Z,0.32
2022-12-25T13:26:57.059Z,0.30
2022-12-25T13:29:35.277Z,0.40
2022-12-25T13:32:05.334Z,0.50
2022-12-25T13:34:42.060Z,0.77
2022-12-25T13:37:21.079Z,0.40
2022-12-25T13:39:52.654Z,1.23
2022-12-25T13:42:26.328Z,0.98
2022-12-25T13:45:03.093Z,2.20
2022-12-25T13:47:43.199Z,1.48
2022-12-25T13:50:20.754Z,0.68
2022-12-25T13:52:47.571Z,0.80
2022-12-25T13:55:19.550Z,0.60
2022-12-25T14:00:39.748Z,0.22
2022-12-25T14:03:15.212Z,0.32
2022-12-25T14:05:43.746Z,0.30
2022-12-25T14:08:22.756Z,0.45
2022-12-25T14:10:52.508Z,0.50
2022-12-25T14:13:23.767Z,0.40
2022-12-25T14:15:51.672Z,0.60
2022-12-25T14:18:20.503Z,0.60
2022-12-25T14:21:04.607Z,1.63
2022-12-25T14:25:59.385Z,0.90
2022-12-25T14:28:32.960Z,1.58
2022-12-25T14:31:01.990Z,1.10
2022-12-25T14:33:35.319Z,1.20
2022-12-25T14:36:02.570Z,1.30
2022-12-25T14:38:39.550Z,1.45
2022-12-25T14:41:43.125Z,2.15
2022-12-25T14:44:32.263Z,4.97
2022-12-25T14:47:20.173Z,3.60
2022-12-25T14:49:48.122Z,1.58
2022-12-25T14:52:26.464Z,1.13
2022-12-25T14:55:01.109Z,0.80
2022-12-25T14:57:50.124Z,0.93
2022-12-25T15:00:31.841Z,1.02
2022-12-25T15:03:00.330Z,0.80
2022-12-25T15:05:33.925Z,0.80
2022-12-25T15:08:10.316Z,0.70
2022-12-25T15:13:26.059Z,1.05
2022-12-25T15:15:59.063Z,0.80
2022-12-25T15:18:31.890Z,1.02
2022-12-25T15:20:59.121Z,2.08
2022-12-25T15:23:26.100Z,1.83
2022-12-25T15:25:53.043Z,1.45
2022-12-25T15:28:20.408Z,1.42
2022-12-25T15:30:49.748Z,26.73
2022-12-25T15:33:18.754Z,12.50
2022-12-25T15:35:46.201Z,6.47
2022-12-25T15:38:13.862Z,3.95
2022-12-25T15:40:41.448Z,3.17
2022-12-25T15:43:38.876Z,3.45
2022-12-25T15:46:00.291Z,3.53
2022-12-25T15:48:27.083Z,4.00
2022-12-25T15:50:53.909Z,3.80
2022-12-25T15:53:20.740Z,4.15
2022-12-25T15:55:47.576Z,2.90
2022-12-25T15:58:15.187Z,3.20
2022-12-25T16:00:42.061Z,2.90
2022-12-25T16:03:09.030Z,3.22
2022-12-25T16:05:36.096Z,3.75
2022-12-25T16:08:02.886Z,4.72
2022-12-25T16:10:34.827Z,4.10
2022-12-25T16:13:05.137Z,4.13
2022-12-25T16:15:32.080Z,4.70
2022-12-25T16:17:59.086Z,4.00
2022-12-25T16:20:25.998Z,3.05
2022-12-25T16:22:52.791Z,4.28
2022-12-25T16:25:20.167Z,9.52
2022-12-25T16:27:47.226Z,11.23
2022-12-25T16:30:16.505Z,10.95
2022-12-25T16:32:45.293Z,14.45
2022-12-25T16:35:12.587Z,21.65
2022-12-25T16:37:39.900Z,19.50
2022-12-25T16:40:09.596Z,20.77
2022-12-25T16:42:37.919Z,19.42
2022-12-25T16:45:05.308Z,18.23
2022-12-25T16:47:32.485Z,14.88
2022-12-25T16:49:59.617Z,17.33
2022-12-25T16:52:26.514Z,13.70
2022-12-25T16:54:53.316Z,11.45
2022-12-25T16:57:20.164Z,12.02
2022-12-25T16:59:47.246Z,10.13
2022-12-25T17:02:20.115Z,9.13
2022-12-25T17:04:48.033Z,7.80
2022-12-25T17:07:16.442Z,6.03
2022-12-25T17:09:46.493Z,4.95
2022-12-25T17:12:13.319Z,6.22
2022-12-25T17:14:40.108Z,6.57
2022-12-25T17:17:07.006Z,5.80
2022-12-25T17:19:34.049Z,6.25
2022-12-25T17:22:00.929Z,4.93
2022-12-25T17:24:28.850Z,5.80
2022-12-25T17:26:55.756Z,9.70
2022-12-25T17:29:23.161Z,9.00
2022-12-25T17:31:50.587Z,6.65
2022-12-25T17:34:17.512Z,6.53
2022-12-25T17:36:44.363Z,4.95
2022-12-25T17:39:11.843Z,3.70
2022-12-25T17:41:38.648Z,3.53
2022-12-25T17:44:05.800Z,3.33
2022-12-25T17:46:32.965Z,6.80
2022-12-25T17:49:01.333Z,4.97
2022-12-25T17:51:30.056Z,3.00
2022-12-25T17:54:00.663Z,1.95
2022-12-25T17:56:27.499Z,2.25
2022-12-25T17:58:58.808Z,2.83
2022-12-25T18:01:28.033Z,2.20
2022-12-25T18:03:55.374Z,3.80
2022-12-25T18:06:24.119Z,3.03
2022-12-25T18:08:50.981Z,4.22
2022-12-25T18:11:24.660Z,3.97
2022-12-25T18:13:53.472Z,4.00
2022-12-25T18:16:22.447Z,5.20
2022-12-25T18:18:52.292Z,6.22
2022-12-25T18:21:21.015Z,4.90
2022-12-25T18:23:47.812Z,4.70
2022-12-25T18:26:14.961Z,4.80
2022-12-25T18:28:42.797Z,6.45
2022-12-25T18:31:22.077Z,6.70
2022-12-25T18:33:49.412Z,4.05
2022-12-25T18:36:20.180Z,4.10
2022-12-25T18:38:48.980Z,3.50
2022-12-25T18:41:15.915Z,2.30
2022-12-25T18:43:54.283Z,2.88
2022-12-25T18:46:27.245Z,2.58
2022-12-25T18:51:22.095Z,2.40
2022-12-25T18:53:48.882Z,3.83
2022-12-25T18:56:17.718Z,4.30
2022-12-25T18:58:46.202Z,3.38
2022-12-25T19:01:24.160Z,3.10
2022-12-25T19:03:57.191Z,2.83
2022-12-25T19:06:29.207Z,2.25
2022-12-25T19:08:56.404Z,2.85
2022-12-25T19:11:23.443Z,2.25
2022-12-25T19:13:50.406Z,2.90
2022-12-25T19:16:17.871Z,2.15
2022-12-25T19:18:44.799Z,2.25
2022-12-25T19:21:11.651Z,7.60
2022-12-25T19:23:38.837Z,2.60
2022-12-25T19:26:07.756Z,3.42
2022-12-25T19:28:35.362Z,8.18
2022-12-25T19:31:03.276Z,3.58
2022-12-25T19:33:34.017Z,2.60
2022-12-25T19:36:02.214Z,2.40
2022-12-25T19:38:29.011Z,2.40
2022-12-25T19:41:01.641Z,2.25
2022-12-25T19:43:34.005Z,2.35
2022-12-25T19:46:01.837Z,1.80
2022-12-25T19:48:29.959Z,1.75
2022-12-25T19:50:56.981Z,1.98
2022-12-25T19:53:23.838Z,1.90
2022-12-25T19:55:54.824Z,1.33
2022-12-25T19:58:23.300Z,1.60
2022-12-25T20:01:06.089Z,1.63
2022-12-25T20:03:45.355Z,1.13
2022-12-25T20:06:20.076Z,1.55
2022-12-25T20:08:47.872Z,1.20
2022-12-25T20:11:15.651Z,1.27
2022-12-25T20:13:42.504Z,1.00
2022-12-25T20:16:10.252Z,1.08
2022-12-25T20:18:38.807Z,1.30
2022-12-25T20:21:09.483Z,1.17
2022-12-25T20:23:36.278Z,1.05
2022-12-25T20:28:39.547Z,1.10
2022-12-25T20:31:14.897Z,1.15
2022-12-25T20:33:41.810Z,1.00
2022-12-25T20:36:09.090Z,1.10
2022-12-25T20:38:37.118Z,1.05
2022-12-25T20:41:26.797Z,1.30
2022-12-25T20:43:54.509Z,1.13
2022-12-25T20:46:22.873Z,1.20
2022-12-25T20:48:49.937Z,1.13
2022-12-25T20:51:19.475Z,1.00
2022-12-25T20:53:47.729Z,1.13
2022-12-25T20:56:17.409Z,1.23
2022-12-25T20:58:44.445Z,1.55
2022-12-25T21:01:17.142Z,1.58
2022-12-25T21:03:44.871Z,1.17
2022-12-25T21:06:12.169Z,1.27
2022-12-25T21:08:40.779Z,1.10
2022-12-25T21:11:08.685Z,1.45
2022-12-25T21:13:40.368Z,1.85
2022-12-25T21:16:13.524Z,1.42
2022-12-25T21:18:40.675Z,1.50
2022-12-25T21:21:08.413Z,1.55
2022-12-25T21:23:37.497Z,1.77
2022-12-25T21:26:15.637Z,1.20
2022-12-25T21:28:42.704Z,1.75
2022-12-25T21:31:09.974Z,1.60
2022-12-25T21:33:52.509Z,1.50
2022-12-25T21:36:27.084Z,2.05
2022-12-25T21:39:07.886Z,1.75
2022-12-25T21:41:36.930Z,2.10
2022-12-25T21:44:04.307Z,3.65
2022-12-25T21:46:31.456Z,2.45
2022-12-25T21:48:59.125Z,2.92
2022-12-25T21:51:48.080Z,2.97
2022-12-25T21:54:15.870Z,3.65
2022-12-25T21:56:45.571Z,3.13
2022-12-25T21:59:16.067Z,3.30
2022-12-25T22:01:43.904Z,2.80
2022-12-25T22:04:11.845Z,2.45
2022-12-25T22:06:57.803Z,2.17
2022-12-25T22:09:25.298Z,1.95
2022-12-25T22:12:10.549Z,2.40
2022-12-25T22:14:55.403Z,2.00
2022-12-25T22:17:46.827Z,2.47
2022-12-25T22:20:19.711Z,2.10
2022-12-25T22:22:46.687Z,2.50
2022-12-25T22:25:15.006Z,2.47
2022-12-25T22:27:43.397Z,2.38
2022-12-25T22:30:13.684Z,2.80
2022-12-25T22:32:40.905Z,3.17
2022-12-25T22:35:08.212Z,2.72
2022-12-25T22:37:36.455Z,3.30
2022-12-25T22:40:05.973Z,3.20
2022-12-25T22:42:33.240Z,3.70
2022-12-25T22:45:00.104Z,3.50
2022-12-25T22:47:26.946Z,3.38
2022-12-25T22:49:53.784Z,3.28
2022-12-25T22:52:20.590Z,3.58
2022-12-25T22:54:47.379Z,3.67
2022-12-25T22:57:14.220Z,3.60
2022-12-25T22:59:41.084Z,3.65
2022-12-25T23:02:08.311Z,3.30
2022-12-25T23:04:35.326Z,2.75
2022-12-25T23:07:02.209Z,2.42
2022-12-25T23:09:29.290Z,2.65
2022-12-25T23:11:57.546Z,2.55
2022-12-25T23:14:41.820Z,2.60
2022-12-25T23:17:30.756Z,2.40
2022-12-25T23:20:17.829Z,2.83
2022-12-25T23:23:04.089Z,2.88
2022-12-25T23:25:49.713Z,2.33
2022-12-25T23:28:36.519Z,2.33
2022-12-25T23:31:03.785Z,2.20
2022-12-25T23:33:32.108Z,2.63
2022-12-25T23:35:58.994Z,2.40
2022-12-25T23:38:25.751Z,2.22
2022-12-25T23:40:52.801Z,2.38
2022-12-25T23:43:19.862Z,2.17
2022-12-25T23:45:46.725Z,2.38
2022-12-25T23:48:13.533Z,2.22
2022-12-25T23:50:40.346Z,1.70
2022-12-25T23:53:07.289Z,2.05
2022-12-25T23:55:34.390Z,1.98
2022-12-25T23:58:01.201Z,2.08
